地図

経路データ

SID SEASON NUMBER BASIN SUBBASIN NAME ISO_TIME NATURE LAT LON WMO_WIND WMO_PRES WMO_AGENCY TRACK_TYPE DIST2LAND LANDFALL IFLAG USA_AGENCY USA_ATCF_ID USA_LAT USA_LON USA_RECORD USA_STATUS USA_WIND USA_PRES USA_SSHS USA_R34_NE USA_R34_SE USA_R34_SW USA_R34_NW USA_R50_NE USA_R50_SE USA_R50_SW USA_R50_NW USA_R64_NE USA_R64_SE USA_R64_SW USA_R64_NW USA_POCI USA_ROCI USA_RMW USA_EYE TOKYO_LAT TOKYO_LON TOKYO_GRADE TOKYO_WIND TOKYO_PRES TOKYO_R50_DIR TOKYO_R50_LONG TOKYO_R50_SHORT TOKYO_R30_DIR TOKYO_R30_LONG TOKYO_R30_SHORT TOKYO_LAND CMA_LAT CMA_LON CMA_CAT CMA_WIND CMA_PRES HKO_LAT HKO_LON HKO_CAT HKO_WIND HKO_PRES NEWDELHI_LAT NEWDELHI_LON NEWDELHI_GRADE NEWDELHI_WIND NEWDELHI_PRES NEWDELHI_CI NEWDELHI_DP NEWDELHI_POCI REUNION_LAT REUNION_LON REUNION_TYPE REUNION_WIND REUNION_PRES REUNION_TNUM REUNION_CI REUNION_RMW REUNION_R34_NE REUNION_R34_SE REUNION_R34_SW REUNION_R34_NW REUNION_R50_NE REUNION_R50_SE REUNION_R50_SW REUNION_R50_NW REUNION_R64_NE REUNION_R64_SE REUNION_R64_SW REUNION_R64_NW BOM_LAT BOM_LON BOM_TYPE BOM_WIND BOM_PRES BOM_TNUM BOM_CI BOM_RMW BOM_R34_NE BOM_R34_SE BOM_R34_SW BOM_R34_NW BOM_R50_NE BOM_R50_SE BOM_R50_SW BOM_R50_NW BOM_R64_NE BOM_R64_SE BOM_R64_SW BOM_R64_NW BOM_ROCI BOM_POCI BOM_EYE BOM_POS_METHOD BOM_PRES_METHOD NADI_LAT NADI_LON NADI_CAT NADI_WIND NADI_PRES WELLINGTON_LAT WELLINGTON_LON WELLINGTON_WIND WELLINGTON_PRES DS824_LAT DS824_LON DS824_STAGE DS824_WIND DS824_PRES TD9636_LAT TD9636_LON TD9636_STAGE TD9636_WIND TD9636_PRES TD9635_LAT TD9635_LON TD9635_WIND TD9635_PRES TD9635_ROCI NEUMANN_LAT NEUMANN_LON NEUMANN_CLASS NEUMANN_WIND NEUMANN_PRES MLC_LAT MLC_LON MLC_CLASS MLC_WIND MLC_PRES USA_GUST BOM_GUST BOM_GUST_PER REUNION_GUST REUNION_GUST_PER USA_SEAHGT USA_SEARAD_NE USA_SEARAD_SE USA_SEARAD_SW USA_SEARAD_NW STORM_SPEED STORM_DIR
1887198N21088 1887 24 NI BB NOT_NAMED 1887-07-17 00:00:00 TS 21.0000 88.0000 main 70 70 _________O____ -1 21.0000 88.0000 TC 34 1 260
1887198N21088 1887 24 NI BB NOT_NAMED 1887-07-17 03:00:00 TS 20.9933 87.9600 main 70 70 _________PO___ -1 20.9900 87.9400 TC 34 21.0000 88.0000 2 1 278
1887198N21088 1887 24 NI BB NOT_NAMED 1887-07-17 06:00:00 TS 21.0100 87.9269 main 73 73 _________OP___ -1 21.0000 87.9000 TC 34 21.0250 87.9672 2 1 320
1887198N21088 1887 24 NI BB NOT_NAMED 1887-07-17 09:00:00 TS 21.0457 87.9118 main 73 63 _________PP___ -1 21.0425 87.8925 TC 34 21.0500 87.9375 2 1 348
1887198N21088 1887 24 NI BB NOT_NAMED 1887-07-17 12:00:00 TS 21.0875 87.9070 main 63 63 _________OP___ -1 21.1000 87.9000 TC 34 21.0750 87.9141 2 1 0
1887198N21088 1887 24 NI BB NOT_NAMED 1887-07-17 15:00:00 TS 21.1287 87.9000 main 63 54 _________PO___ -1 21.1575 87.9000 TC 34 21.1000 87.9000 2 1 341
1887198N21088 1887 24 NI BB NOT_NAMED 1887-07-17 18:00:00 TS 21.1625 87.8984 main 54 54 _________OP___ -1 21.2000 87.9000 TC 34 21.1250 87.8969 2 0 0
1887198N21088 1887 24 NI BB NOT_NAMED 1887-07-17 21:00:00 TS 21.1750 87.9037 main 54 54 _________PP___ -1 21.2000 87.9075 TC 34 21.1500 87.9000 2 0 0
1887198N21088 1887 24 NI BB NOT_NAMED 1887-07-18 00:00:00 TS 21.1875 87.9016 main 54 54 _________OP___ -1 21.2000 87.9000 TC 34 21.1750 87.9031 2 1 333
1887198N21088 1887 24 NI BB NOT_NAMED 1887-07-18 03:00:00 TS 21.2250 87.8750 main 54 44 _________PO___ -1 21.2500 87.8500 TC 34 21.2000 87.9000 2 1 323
1887198N21088 1887 24 NI BB NOT_NAMED 1887-07-18 06:00:00 TS 21.2645 87.8391 main 44 44 _________OP___ -1 21.3000 87.8000 TC 34 21.2291 87.8781 2 1 317
1887198N21088 1887 24 NI BB NOT_NAMED 1887-07-18 09:00:00 TS 21.2825 87.8213 main 44 44 _________PP___ -1 21.3075 87.7925 TC 34 21.2575 87.8500 2 0 0
1887198N21088 1887 24 NI BB NOT_NAMED 1887-07-18 12:00:00 TS 21.2911 87.8109 main 44 44 _________OP___ -1 21.3000 87.8000 TC 34 21.2822 87.8219 2 0 0
1887198N21088 1887 24 NI BB NOT_NAMED 1887-07-18 15:00:00 TS 21.3000 87.8000 main 44 44 _________PO___ -1 21.3000 87.8000 TC 34 21.3000 87.8000 2 0 0
1887198N21088 1887 24 NI BB NOT_NAMED 1887-07-18 18:00:00 TS 21.3016 87.7964 main 44 44 _________OP___ -1 21.3000 87.8000 TC 34 21.3031 87.7928 2 0 0
1887198N21088 1887 24 NI BB NOT_NAMED 1887-07-18 21:00:00 TS 21.3000 87.7962 main 44 44 _________PP___ -1 21.3000 87.8000 TC 34 21.3000 87.7925 2 0 0
1887198N21088 1887 24 NI BB NOT_NAMED 1887-07-19 00:00:00 TS 21.2984 87.7980 main 44 44 _________OP___ -1 21.3000 87.8000 TC 34 21.2969 87.7959 2 0 0
1887198N21088 1887 24 NI BB NOT_NAMED 1887-07-19 03:00:00 TS 21.2962 87.8000 main 44 44 _________PO___ -1 21.2925 87.8000 TC 34 21.3000 87.8000 2 0 0
1887198N21088 1887 24 NI BB NOT_NAMED 1887-07-19 06:00:00 TS 21.3109 87.8020 main 44 44 _________OP___ -1 21.3000 87.8000 TC 34 21.3219 87.8041 2 1 16
1887198N21088 1887 24 NI BB NOT_NAMED 1887-07-19 09:00:00 TS 21.3500 87.8038 main 33 33 _________PP___ -1 21.3500 87.8000 TC 34 21.3500 87.8075 2 1 9
1887198N21088 1887 24 NI BB NOT_NAMED 1887-07-19 12:00:00 TS 21.3891 87.8036 main 33 33 _________OP___ -1 21.4000 87.8000 TC 34 21.3781 87.8072 2 1 16
1887198N21088 1887 24 NI BB NOT_NAMED 1887-07-19 15:00:00 TS 21.4037 87.8038 main 33 33 _________PO___ -1 21.4075 87.8075 TC 34 21.4000 87.8000 2 0 0
1887198N21088 1887 24 NI BB NOT_NAMED 1887-07-19 18:00:00 TS 21.4016 87.7891 main 33 33 _________OP___ -1 21.4000 87.8000 TC 34 21.4031 87.7781 2 1 266
1887198N21088 1887 24 NI BB NOT_NAMED 1887-07-19 21:00:00 TS 21.4000 87.7500 main 33 33 _________PP___ -1 21.4000 87.7500 TC 34 21.4000 87.7500 2 1 267
1887198N21088 1887 24 NI BB NOT_NAMED 1887-07-20 00:00:00 TS 21.3984 87.7109 main 33 33 _________OP___ -1 21.4000 87.7000 TC 34 21.3969 87.7219 2 1 266
1887198N21088 1887 24 NI BB NOT_NAMED 1887-07-20 03:00:00 TS 21.3962 87.6962 main 33 33 _________PO___ -1 21.3925 87.6925 TC 34 21.4000 87.7000 2 0 0
1887198N21088 1887 24 NI BB NOT_NAMED 1887-07-20 06:00:00 TS 21.4089 87.6984 main 33 33 _________OP___ -1 21.4000 87.7000 TC 34 21.4178 87.6969 2 1 27
1887198N21088 1887 24 NI BB NOT_NAMED 1887-07-20 09:00:00 TS 21.4462 87.7037 main 33 22 _________PP___ -1 21.4500 87.7075 TC 34 21.4425 87.7000 2 1 15
1887198N21088 1887 24 NI BB NOT_NAMED 1887-07-20 12:00:00 TS 21.4855 87.7016 main 22 22 _________OP___ -1 21.5000 87.7000 TC 34 21.4709 87.7031 2 1 344
1887198N21088 1887 24 NI BB NOT_NAMED 1887-07-20 15:00:00 TS 21.5000 87.6750 main 22 22 _________PO___ -1 21.5000 87.6500 TC 34 21.5000 87.7000 2 1 299
1887198N21088 1887 24 NI BB NOT_NAMED 1887-07-20 18:00:00 TS 21.5125 87.6391 main 22 22 _________OP___ -1 21.5000 87.6000 TC 34 21.5250 87.6781 2 1 309
1887198N21088 1887 24 NI BB NOT_NAMED 1887-07-20 21:00:00 TS 21.5500 87.6213 main 11 11 _________PP___ -1 21.5500 87.5925 TC 34 21.5500 87.6500 2 1 341
1887198N21088 1887 24 NI BB NOT_NAMED 1887-07-21 00:00:00 TS 21.5875 87.6109 main 11 11 _________OP___ -1 21.6000 87.6000 TC 34 21.5750 87.6219 2 1 333
1887198N21088 1887 24 NI BB NOT_NAMED 1887-07-21 03:00:00 TS 21.6000 87.6000 main 11 11 _________PO___ -1 21.6000 87.6000 TC 34 21.6000 87.6000 2 0 0
1887198N21088 1887 24 NI BB NOT_NAMED 1887-07-21 06:00:00 TS 21.6125 87.5984 main 11 11 _________OP___ -1 21.6000 87.6000 TC 34 21.6250 87.5969 2 0 0
1887198N21088 1887 24 NI BB NOT_NAMED 1887-07-21 09:00:00 TS 21.6462 87.6000 main 11 0 _________PP___ -1 21.6425 87.6000 TC 34 21.6500 87.6000 2 1 19
1887198N21088 1887 24 NI BB NOT_NAMED 1887-07-21 12:00:00 TS 21.6875 87.6016 main 0 0 _________OP___ -1 21.7000 87.6000 TC 34 21.6750 87.6031 2 1 0
1887198N21088 1887 24 NI BB NOT_NAMED 1887-07-21 15:00:00 TS 21.7287 87.6037 main 0 0 _________PO___ -1 21.7575 87.6075 TC 34 21.7000 87.6000 2 1 341
1887198N21088 1887 24 NI BB NOT_NAMED 1887-07-21 18:00:00 TS 21.7625 87.5891 main 0 0 _________OP___ -1 21.8000 87.6000 TC 34 21.7250 87.5781 2 1 312
1887198N21088 1887 24 NI BB NOT_NAMED 1887-07-21 21:00:00 TS 21.7750 87.5500 main 0 0 _________PP___ -1 21.8000 87.5500 TC 34 21.7500 87.5500 2 1 291
1887198N21088 1887 24 NI BB NOT_NAMED 1887-07-22 00:00:00 TS 21.7875 87.5109 main 0 0 _________OP___ -1 21.8000 87.5000 TC 34 21.7750 87.5219 2 1 309
1887198N21088 1887 24 NI BB NOT_NAMED 1887-07-22 03:00:00 TS 21.8250 87.4962 main 0 0 _________PO___ -1 21.8500 87.4925 TC 34 21.8000 87.5000 2 1 341
1887198N21088 1887 24 NI BB NOT_NAMED 1887-07-22 06:00:00 TS 21.8625 87.4984 main 0 0 _________OP___ -1 21.9000 87.5000 TC 34 21.8250 87.4969 2 1 16
1887198N21088 1887 24 NI BB NOT_NAMED 1887-07-22 09:00:00 TS 21.8787 87.5037 main 0 0 _________PP___ -1 21.9075 87.5075 TC 34 21.8500 87.5000 2 0 0
1887198N21088 1887 24 NI BB NOT_NAMED 1887-07-22 12:00:00 TS 21.8875 87.5016 main 0 0 _________OP___ -1 21.9000 87.5000 TC 34 21.8750 87.5031 2 0 0
1887198N21088 1887 24 NI BB NOT_NAMED 1887-07-22 15:00:00 TS 21.8963 87.4750 main 0 0 _________PO___ -1 21.8925 87.4500 TC 34 21.9000 87.5000 2 1 297
1887198N21088 1887 24 NI BB NOT_NAMED 1887-07-22 18:00:00 TS 21.9125 87.4411 main 0 0 _________OP___ -1 21.9000 87.4000 TC 34 21.9250 87.4822 2 1 317
1887198N21088 1887 24 NI BB NOT_NAMED 1887-07-22 21:00:00 TS 21.9463 87.4287 main 0 0 _________PP___ -1 21.9425 87.4000 TC 34 21.9500 87.4575 2 1 341
1887198N21088 1887 24 NI BB NOT_NAMED 1887-07-23 00:00:00 TS 21.9875 87.4145 main 0 0 _________OP___ -1 22.0000 87.4000 TC 34 21.9750 87.4291 2 1 328
1887198N21088 1887 24 NI BB NOT_NAMED 1887-07-23 03:00:00 TS 22.0288 87.3750 main 0 0 _________PO___ -1 22.0575 87.3500 TC 34 22.0000 87.4000 2 1 316
1887198N21088 1887 24 NI BB NOT_NAMED 1887-07-23 06:00:00 TS 22.0625 87.3375 main 0 0 _________OP___ -1 22.1000 87.3000 TC 34 22.0250 87.3750 2 1 309
1887198N21088 1887 24 NI BB NOT_NAMED 1887-07-23 09:00:00 TS 22.0787 87.3212 main 0 0 _________PP___ -1 22.1075 87.2925 TC 34 22.0500 87.3500 2 0 0
1887198N21088 1887 24 NI BB NOT_NAMED 1887-07-23 12:00:00 TS 22.0875 87.3125 main 0 0 _________OP___ -1 22.1000 87.3000 TC 34 22.0750 87.3250 2 0 0
1887198N21088 1887 24 NI BB NOT_NAMED 1887-07-23 15:00:00 TS 22.0962 87.3037 main 0 0 _________PO___ -1 22.0925 87.3075 TC 34 22.1000 87.3000 2 0 0
1887198N21088 1887 24 NI BB NOT_NAMED 1887-07-23 18:00:00 TS 22.1122 87.3281 main 0 0 _________OP___ -1 22.1000 87.3000 TC 34 22.1244 87.3561 2 1 48
1887198N21088 1887 24 NI BB NOT_NAMED 1887-07-23 21:00:00 TS 22.1418 87.3623 main 0 0 _________PP___ -1 22.1347 87.3249 TC 34 22.1489 87.3998 2 1 328
1887198N21088 1887 24 NI BB NOT_NAMED 1887-07-24 00:00:00 TS 22.1870 87.2843 main 0 0 _________OP___ -1 22.2000 87.2000 TC 34 22.1740 87.3686 2 4 288
1887198N21088 1887 24 NI BB NOT_NAMED 1887-07-24 03:00:00 TS 22.2576 86.9877 main 0 0 _________PO___ -1 22.3152 86.7753 TC 34 22.2000 87.2000 2 7 280
1887198N21088 1887 24 NI BB NOT_NAMED 1887-07-24 06:00:00 TS 22.3088 86.5113 main 0 0 _________OP___ -1 22.4000 86.2000 TC 34 22.2176 86.8226 2 9 272
1887198N21088 1887 24 NI BB NOT_NAMED 1887-07-24 09:00:00 TS 22.2967 85.9821 main 0 0 _________PP___ -1 22.3574 85.6571 TC 34 22.2361 86.3071 2 10 268
1887198N21088 1887 24 NI BB NOT_NAMED 1887-07-24 12:00:00 TS 22.2807 85.4065 main 0 0 _________OP___ -1 22.3000 85.1000 TC 34 22.2613 85.7131 2 11 271
1887198N21088 1887 24 NI BB NOT_NAMED 1887-07-24 15:00:00 TS 22.3137 84.8250 main 0 0 _________PO___ -1 22.3273 84.5500 TC 33 22.3000 85.1000 2 11 275
1887198N21088 1887 24 NI BB NOT_NAMED 1887-07-24 18:00:00 TS 22.3701 84.2703 main 0 0 _________OP___ -1 22.4000 84.0000 TC 32 22.3402 84.5406 2 10 277
1887198N21088 1887 24 NI BB NOT_NAMED 1887-07-24 21:00:00 TS 22.4375 83.7059 main 0 0 _________PP___ -1 22.4775 83.4349 TC 31 22.3975 83.9770 2 10 279
1887198N21088 1887 24 NI BB NOT_NAMED 1887-07-25 00:00:00 TS 22.5405 83.1624 main 0 0 _________OP___ -1 22.6000 82.9000 TC 30 22.4809 83.4248 2 10 285
1887198N21088 1887 24 NI BB NOT_NAMED 1887-07-25 03:00:00 TS 22.6924 82.6675 main 0 0 _________PO___ -1 22.7847 82.4350 TC 30 22.6000 82.9000 1 10 291
1887198N21088 1887 24 NI BB NOT_NAMED 1887-07-25 06:00:00 TS 22.8878 82.2048 main 0 0 _________OP___ -1 23.0000 82.0000 TC 30 22.7757 82.4096 1 9 296
1887198N21088 1887 24 NI BB NOT_NAMED 1887-07-25 09:00:00 TS 23.0996 81.7454 main 0 0 _________PP___ -1 23.2149 81.5425 TC 30 22.9843 81.9482 1 9 297
1887198N21088 1887 24 NI BB NOT_NAMED 1887-07-25 12:00:00 TS 23.3004 81.3063 main 0 0 _________OP___ -1 23.4000 81.1000 TC 30 23.2008 81.5126 1 9 294
1887198N21088 1887 24 NI BB NOT_NAMED 1887-07-25 15:00:00 TS 23.4537 80.8924 main 0 0 _________PO___ -1 23.5074 80.6847 TC 30 23.4000 81.1000 1 8 290
1887198N21088 1887 24 NI BB NOT_NAMED 1887-07-25 18:00:00 TS 23.5712 80.4812 main 0 0 _________OP___ -1 23.6000 80.3000 TC 30 23.5425 80.6624 1 8 289
1887198N21088 1887 24 NI BB NOT_NAMED 1887-07-25 21:00:00 TS 23.7038 80.0823 main 0 0 _________PP___ -1 23.7425 79.9126 TC 30 23.6651 80.2521 1 7 292
1887198N21088 1887 24 NI BB NOT_NAMED 1887-07-26 00:00:00 TS 23.8401 79.7454 main 0 0 _________OP___ -1 23.9000 79.6000 TC 30 23.7801 79.8907 1 6 297
1887198N21088 1887 24 NI BB NOT_NAMED 1887-07-26 03:00:00 TS 23.9749 79.5062 main 0 0 _________PO___ -1 24.0499 79.4124 TC 30 23.9000 79.6000 1 4 309
1887198N21088 1887 24 NI BB NOT_NAMED 1887-07-26 06:00:00 TS 24.1189 79.3695 main 0 0 _________OP___ -1 24.2000 79.3000 TC 30 24.0379 79.4389 1 4 325
1887198N21088 1887 24 NI BB NOT_NAMED 1887-07-26 09:00:00 TS 24.2631 79.2856 main 0 0 _________PP___ -1 24.3423 79.2298 TC 30 24.1838 79.3414 1 4 330
1887198N21088 1887 24 NI BB NOT_NAMED 1887-07-26 12:00:00 TS 24.4189 79.1741 main 0 0 _________OP___ -1 24.5000 79.1000 TC 30 24.3379 79.2482 1 5 317
1887198N21088 1887 24 NI BB NOT_NAMED 1887-07-26 15:00:00 TS 24.6001 78.9438 main 0 0 _________PO___ -1 24.7001 78.7877 TC 30 24.5000 79.1000 1 6 304
1887198N21088 1887 24 NI BB NOT_NAMED 1887-07-26 18:00:00 TS 24.7741 78.5932 main 0 0 _________OP___ -1 24.9000 78.4000 TC 30 24.6482 78.7864 1 7 296
1887198N21088 1887 24 NI BB NOT_NAMED 1887-07-26 21:00:00 TS 24.9243 78.2250 main 0 0 _________PP___ -1 25.0425 78.0348 TC 30 24.8060 78.4152 1 7 296
1887198N21088 1887 24 NI AS NOT_NAMED 1887-07-27 00:00:00 TS 25.0929 77.8682 main 0 0 _________OP___ -1 25.2000 77.7000 TC 30 24.9857 78.0364 1 7 303
1887198N21088 1887 24 NI AS NOT_NAMED 1887-07-27 03:00:00 TS 25.3100 77.5563 main 0 0 _________PO___ -1 25.4200 77.4125 TC 30 25.2000 77.7000 1 7 314
1887198N21088 1887 24 NI AS NOT_NAMED 1887-07-27 06:00:00 TS 25.5616 77.3395 main 0 0 _________OP___ -1 25.7000 77.2000 TC 30 25.4579 77.4441 1 7 329
1887198N21088 1887 24 NI AS NOT_NAMED 1887-07-27 09:00:00 TS 25.8651 77.1846 main 0 0 _________PP___ -1 26.0350 77.0750 TC 30 25.7518 77.2576 1 7 339
1887198N21088 1887 24 NI AS NOT_NAMED 1887-07-27 12:00:00 TS 26.1799 77.0782 main 0 0 _________OP___ -1 26.4000 77.0000 TC 30 26.0699 77.1174 1 6 342
1887198N21088 1887 24 NI AS NOT_NAMED 1887-07-27 15:00:00 NR 26.4000 77.0000 main 0 __________O___ -1 TC 26.4000 77.0000 1 5 343

IBTrACS Databaseについて

本データベースは、米国NOAAが公開する1842年以降の世界の熱帯低気圧のベストトラックデータアーカイブInternational Best Track Archive for Climate Stewardship (IBTrACS)を、ウェブで閲覧しやすい形式に変換したものです。

最終更新日:2021-10-21